createdAt,value
2018-07-12T00:00:15.278Z,100863.00
2018-07-12T00:02:43.005Z,100860.00
2018-07-12T00:05:10.756Z,100866.00
2018-07-12T00:07:38.484Z,100863.00
2018-07-12T00:10:06.247Z,100862.00
2018-07-12T00:12:33.999Z,100864.00
2018-07-12T00:15:01.760Z,100869.00
2018-07-12T00:17:29.473Z,100873.00
2018-07-12T00:19:57.200Z,100851.00
2018-07-12T00:22:24.929Z,100867.00
2018-07-12T00:24:52.661Z,100864.00
2018-07-12T00:27:20.744Z,100855.00
2018-07-12T00:29:48.431Z,100859.00
2018-07-12T00:32:16.204Z,100861.00
2018-07-12T00:34:44.017Z,100865.00
2018-07-12T00:37:11.743Z,100862.00
2018-07-12T00:39:39.476Z,100860.00
2018-07-12T00:42:07.227Z,100855.00
2018-07-12T00:44:34.945Z,100848.00
2018-07-12T00:47:02.668Z,100838.00
2018-07-12T00:49:30.429Z,100832.00
2018-07-12T00:51:58.195Z,100832.00
2018-07-12T00:54:25.927Z,100837.00
2018-07-12T00:56:54.186Z,100844.00
2018-07-12T00:59:21.922Z,100845.00
2018-07-12T01:01:49.660Z,100846.00
2018-07-12T01:04:17.435Z,100856.00
2018-07-12T01:06:45.152Z,100848.00
2018-07-12T01:09:12.904Z,100844.00
2018-07-12T01:11:40.705Z,100844.00
2018-07-12T01:14:08.432Z,100839.00
2018-07-12T01:16:36.179Z,100844.00
2018-07-12T01:19:03.951Z,100848.00
2018-07-12T01:21:35.633Z,100848.00
2018-07-12T01:24:03.438Z,100847.00
2018-07-12T01:26:31.229Z,100855.00
2018-07-12T01:28:59.070Z,100849.00
2018-07-12T01:31:26.916Z,100853.00
2018-07-12T01:33:54.984Z,100846.00
2018-07-12T01:36:23.180Z,100849.00
2018-07-12T01:38:50.939Z,100846.00
2018-07-12T01:41:18.648Z,100837.00
2018-07-12T01:43:46.453Z,100846.00
2018-07-12T01:46:14.192Z,100845.00
2018-07-12T01:48:41.915Z,100848.00
2018-07-12T01:51:09.657Z,100846.00
2018-07-12T01:53:37.383Z,100847.00
2018-07-12T01:56:05.452Z,100846.00
2018-07-12T01:58:33.251Z,100851.00
2018-07-12T02:01:00.984Z,100844.00
2018-07-12T02:03:28.740Z,100846.00
2018-07-12T02:05:56.472Z,100843.00
2018-07-12T02:08:24.569Z,100850.00
2018-07-12T02:10:52.287Z,100828.00
2018-07-12T02:13:19.995Z,100844.00
2018-07-12T02:15:47.795Z,100843.00
2018-07-12T02:18:15.527Z,100844.00
2018-07-12T02:20:43.557Z,100839.00
2018-07-12T02:23:11.311Z,100838.00
2018-07-12T02:25:39.106Z,100839.00
2018-07-12T02:28:06.887Z,100846.00
2018-07-12T02:30:34.627Z,100833.00
2018-07-12T02:33:02.381Z,100829.00
2018-07-12T02:35:30.128Z,100832.00
2018-07-12T02:37:57.881Z,100825.00
2018-07-12T02:40:25.928Z,100833.00
2018-07-12T02:42:53.653Z,100826.00
2018-07-12T02:45:22.265Z,100830.00
2018-07-12T02:47:50.097Z,100835.00
2018-07-12T02:50:17.874Z,100826.00
2018-07-12T02:52:45.649Z,100819.00
2018-07-12T02:55:13.470Z,100824.00
2018-07-12T02:57:41.192Z,100828.00
2018-07-12T03:00:08.977Z,100824.00
2018-07-12T03:02:36.776Z,100832.00
2018-07-12T03:05:04.507Z,100832.00
2018-07-12T03:07:32.269Z,100826.00
2018-07-12T03:10:00.011Z,100823.00
2018-07-12T03:12:27.749Z,100830.00
2018-07-12T03:14:57.088Z,100825.00
2018-07-12T03:17:24.829Z,100828.00
2018-07-12T03:19:52.609Z,100834.00
2018-07-12T03:22:20.463Z,100834.00
2018-07-12T03:24:48.196Z,100832.00
2018-07-12T03:27:15.965Z,100838.00
2018-07-12T03:29:43.688Z,100838.00
2018-07-12T03:32:11.429Z,100829.00
2018-07-12T03:34:39.197Z,100844.00
2018-07-12T03:37:07.331Z,100844.00
2018-07-12T03:39:35.992Z,100838.00
2018-07-12T03:42:15.256Z,100839.00
2018-07-12T03:44:43.018Z,100849.00
2018-07-12T03:47:10.729Z,100852.00
2018-07-12T03:49:38.749Z,100855.00
2018-07-12T03:52:06.489Z,100858.00
2018-07-12T03:54:34.270Z,100859.00
2018-07-12T03:57:04.329Z,100861.00
2018-07-12T03:59:32.057Z,100856.00
2018-07-12T04:01:59.800Z,100854.00
2018-07-12T04:04:27.608Z,100856.00
2018-07-12T04:06:55.393Z,100855.00
2018-07-12T04:09:23.117Z,100860.00
2018-07-12T04:11:50.868Z,100869.00
2018-07-12T04:14:18.747Z,100857.00
2018-07-12T04:16:46.569Z,100861.00
2018-07-12T04:19:14.325Z,100872.00
2018-07-12T04:21:42.064Z,100870.00
2018-07-12T04:24:09.816Z,100878.00
2018-07-12T04:26:37.575Z,100871.00
2018-07-12T04:29:05.376Z,100860.00
2018-07-12T04:31:33.184Z,100875.00
2018-07-12T04:34:00.963Z,100873.00
2018-07-12T04:36:28.704Z,100868.00
2018-07-12T04:38:56.448Z,100867.00
2018-07-12T04:41:24.189Z,100869.00
2018-07-12T04:43:51.973Z,100863.00
2018-07-12T04:46:19.716Z,100863.00
2018-07-12T04:48:47.831Z,100872.00
2018-07-12T04:51:15.662Z,100873.00
2018-07-12T04:53:43.371Z,100874.00
2018-07-12T04:56:11.172Z,100878.00
2018-07-12T04:58:38.939Z,100879.00
2018-07-12T05:01:06.634Z,100879.00
2018-07-12T05:03:34.330Z,100870.00
2018-07-12T05:06:02.080Z,100870.00
2018-07-12T05:08:29.861Z,100864.00
2018-07-12T05:10:57.630Z,100873.00
2018-07-12T05:13:25.347Z,100874.00
2018-07-12T05:15:53.125Z,100875.00
2018-07-12T05:18:21.859Z,100877.00
2018-07-12T05:20:49.614Z,100868.00
2018-07-12T05:23:17.353Z,100877.00
2018-07-12T05:25:45.429Z,100879.00
2018-07-12T05:28:13.192Z,100873.00
2018-07-12T05:30:40.976Z,100883.00
2018-07-12T05:33:09.062Z,100882.00
2018-07-12T05:35:38.439Z,100884.00
2018-07-12T05:38:07.836Z,100894.00
2018-07-12T05:40:37.200Z,100901.00
2018-07-12T05:43:06.636Z,100895.00
2018-07-12T05:45:36.007Z,100895.00
2018-07-12T05:48:05.596Z,100897.00
2018-07-12T05:50:36.523Z,100901.00
2018-07-12T05:53:06.428Z,100898.00
2018-07-12T05:55:35.764Z,100907.00
2018-07-12T05:58:05.194Z,100905.00
2018-07-12T06:00:34.905Z,100909.00
2018-07-12T06:03:04.596Z,100907.00
2018-07-12T06:05:33.995Z,100914.00
2018-07-12T06:08:03.397Z,100914.00
2018-07-12T06:10:32.713Z,100916.00
2018-07-12T06:13:02.215Z,100916.00
2018-07-12T06:15:31.756Z,100917.00
2018-07-12T06:18:01.363Z,100915.00
2018-07-12T06:20:30.844Z,100913.00
2018-07-12T06:23:00.347Z,100912.00
2018-07-12T06:25:29.759Z,100913.00
2018-07-12T06:27:59.137Z,100915.00
2018-07-12T06:30:28.601Z,100919.00
2018-07-12T06:32:58.069Z,100916.00
2018-07-12T06:35:27.547Z,100917.00
2018-07-12T06:37:57.064Z,100920.00
2018-07-12T06:40:26.523Z,100924.00
2018-07-12T06:42:55.947Z,100920.00
2018-07-12T06:45:25.296Z,100928.00
2018-07-12T06:47:54.685Z,100924.00
2018-07-12T06:50:24.155Z,100927.00
2018-07-12T06:52:53.933Z,100922.00
2018-07-12T06:55:23.243Z,100925.00
2018-07-12T06:57:52.561Z,100928.00
2018-07-12T07:00:21.995Z,100925.00
2018-07-12T07:02:51.827Z,100924.00
2018-07-12T07:05:21.152Z,100915.00
2018-07-12T07:07:50.697Z,100916.00
2018-07-12T07:10:20.081Z,100924.00
2018-07-12T07:12:49.495Z,100915.00
2018-07-12T07:15:19.925Z,100912.00
2018-07-12T07:17:49.676Z,100917.00
2018-07-12T07:20:19.033Z,100924.00
2018-07-12T07:22:48.356Z,100929.00
2018-07-12T07:25:17.756Z,100924.00
2018-07-12T07:27:47.149Z,100932.00
2018-07-12T07:30:16.561Z,100926.00
2018-07-12T07:32:45.873Z,100931.00
2018-07-12T07:35:17.837Z,100933.00
2018-07-12T07:37:47.192Z,100928.00
2018-07-12T07:40:16.619Z,100927.00
2018-07-12T07:42:46.057Z,100931.00
2018-07-12T07:45:15.450Z,100925.00
2018-07-12T07:47:58.358Z,100923.00
2018-07-12T07:50:27.865Z,100920.00
2018-07-12T07:52:57.456Z,100922.00
2018-07-12T07:55:26.821Z,100919.00
2018-07-12T07:57:56.227Z,100915.00
2018-07-12T08:00:26.726Z,100915.00
2018-07-12T08:02:56.116Z,100920.00
2018-07-12T08:05:25.893Z,100919.00
2018-07-12T08:07:55.259Z,100927.00
2018-07-12T08:10:38.567Z,100929.00
2018-07-12T08:13:08.193Z,100932.00
2018-07-12T08:15:38.987Z,100932.00
2018-07-12T08:18:08.377Z,100939.00
2018-07-12T08:20:37.766Z,100934.00
2018-07-12T08:23:07.365Z,100937.00
2018-07-12T08:25:36.767Z,100933.00
2018-07-12T08:28:29.976Z,100932.00
2018-07-12T08:31:02.532Z,100928.00
2018-07-12T08:33:31.929Z,100925.00
2018-07-12T08:36:01.293Z,100933.00
2018-07-12T08:38:30.713Z,100925.00
2018-07-12T08:41:00.191Z,100922.00
2018-07-12T08:43:29.809Z,100927.00
2018-07-12T08:45:59.370Z,100930.00
2018-07-12T08:48:28.847Z,100925.00
2018-07-12T08:51:00.982Z,100923.00
2018-07-12T08:53:30.460Z,100934.00
2018-07-12T08:55:59.945Z,100927.00
2018-07-12T08:58:29.708Z,100927.00
2018-07-12T09:00:59.151Z,100927.00
2018-07-12T09:03:28.548Z,100915.00
2018-07-12T09:05:58.022Z,100926.00
2018-07-12T09:08:27.372Z,100920.00
2018-07-12T09:10:56.693Z,100928.00
2018-07-12T09:13:26.167Z,100929.00
2018-07-12T09:15:55.613Z,100924.00
2018-07-12T09:18:25.033Z,100926.00
2018-07-12T09:20:54.430Z,100919.00
2018-07-12T09:23:23.873Z,100924.00
2018-07-12T09:25:53.313Z,100936.00
2018-07-12T09:28:22.696Z,100925.00
2018-07-12T09:30:52.014Z,100927.00
2018-07-12T09:33:21.332Z,100923.00
2018-07-12T09:35:50.725Z,100934.00
2018-07-12T09:38:53.116Z,100930.00
2018-07-12T09:41:24.381Z,100936.00
2018-07-12T09:43:54.108Z,100929.00
2018-07-12T09:46:23.393Z,100920.00
2018-07-12T09:48:53.243Z,100930.00
2018-07-12T09:51:22.626Z,100933.00
2018-07-12T09:53:51.904Z,100940.00
2018-07-12T09:56:21.354Z,100936.00
2018-07-12T09:58:50.754Z,100940.00
2018-07-12T10:01:25.344Z,100934.00
2018-07-12T10:03:54.947Z,100946.00
2018-07-12T10:06:26.093Z,100934.00
2018-07-12T10:08:57.019Z,100934.00
2018-07-12T10:11:31.616Z,100932.00
2018-07-12T10:14:06.051Z,100942.00
2018-07-12T10:16:40.367Z,100940.00
2018-07-12T10:19:09.626Z,100938.00
2018-07-12T10:21:38.882Z,100931.00
2018-07-12T10:24:08.547Z,100928.00
2018-07-12T10:26:37.855Z,100939.00
2018-07-12T10:29:10.987Z,100942.00
2018-07-12T10:31:43.462Z,100943.00
2018-07-12T10:34:13.032Z,100933.00
2018-07-12T10:36:42.319Z,100943.00
2018-07-12T10:39:11.682Z,100938.00
2018-07-12T10:41:40.971Z,100945.00
2018-07-12T10:44:10.244Z,100942.00
2018-07-12T10:46:39.434Z,100935.00
2018-07-12T10:49:08.758Z,100937.00
2018-07-12T10:51:39.096Z,100940.00
2018-07-12T10:54:08.443Z,100942.00
2018-07-12T10:56:37.704Z,100932.00
2018-07-12T10:59:07.071Z,100936.00
2018-07-12T11:01:36.369Z,100919.00
2018-07-12T11:04:06.006Z,100931.00
2018-07-12T11:06:35.223Z,100929.00
2018-07-12T11:09:06.049Z,100917.00
2018-07-12T11:11:38.579Z,100917.00
2018-07-12T11:14:08.080Z,100911.00
2018-07-12T11:16:37.343Z,100910.00
2018-07-12T11:19:07.324Z,100914.00
2018-07-12T11:21:36.659Z,100910.00
2018-07-12T11:24:05.898Z,100918.00
2018-07-12T11:26:35.150Z,100911.00
2018-07-12T11:29:04.503Z,100926.00
2018-07-12T11:31:33.773Z,100922.00
2018-07-12T11:34:03.056Z,100920.00
2018-07-12T11:36:32.359Z,100914.00
2018-07-12T11:39:02.095Z,100915.00
2018-07-12T11:41:31.409Z,100914.00
2018-07-12T11:44:00.758Z,100906.00
2018-07-12T11:46:30.107Z,100912.00
2018-07-12T11:48:59.427Z,100910.00
2018-07-12T11:51:28.747Z,100907.00
2018-07-12T11:53:58.120Z,100905.00
2018-07-12T11:56:27.420Z,100909.00
2018-07-12T11:58:56.782Z,100905.00
2018-07-12T12:01:26.157Z,100905.00
2018-07-12T12:03:55.506Z,100906.00
2018-07-12T12:06:25.219Z,100908.00
2018-07-12T12:08:54.496Z,100901.00
2018-07-12T12:11:24.203Z,100906.00
2018-07-12T12:13:53.499Z,100909.00
2018-07-12T12:16:22.845Z,100906.00
2018-07-12T12:18:53.181Z,100906.00
2018-07-12T12:21:22.448Z,100903.00
2018-07-12T12:23:51.735Z,100909.00
2018-07-12T12:26:24.342Z,100916.00
2018-07-12T12:28:53.702Z,100913.00
2018-07-12T12:31:22.977Z,100931.00
2018-07-12T12:33:52.315Z,100934.00
2018-07-12T12:36:22.638Z,100937.00
2018-07-12T12:38:52.411Z,100935.00
2018-07-12T12:41:21.654Z,100935.00
2018-07-12T12:43:51.038Z,100921.00
2018-07-12T12:46:20.379Z,100915.00
2018-07-12T12:48:51.703Z,100909.00
2018-07-12T12:51:20.987Z,100906.00
2018-07-12T12:53:50.329Z,100906.00
2018-07-12T12:56:19.623Z,100910.00
2018-07-12T12:58:48.998Z,100911.00
2018-07-12T13:01:18.415Z,100916.00
2018-07-12T13:03:48.800Z,100915.00
2018-07-12T13:06:18.119Z,100904.00
2018-07-12T13:08:47.459Z,100899.00
2018-07-12T13:11:16.746Z,100901.00
2018-07-12T13:13:46.627Z,100895.00
2018-07-12T13:16:16.159Z,100904.00
2018-07-12T13:18:45.500Z,100901.00
2018-07-12T13:21:14.775Z,100904.00
2018-07-12T13:23:44.084Z,100908.00
2018-07-12T13:26:14.455Z,100902.00
2018-07-12T13:28:43.826Z,100905.00
2018-07-12T13:31:13.146Z,100917.00
2018-07-12T13:33:42.431Z,100932.00
2018-07-12T13:36:11.719Z,100951.00
2018-07-12T13:38:41.062Z,100951.00
2018-07-12T13:41:10.545Z,100948.00
2018-07-12T13:43:39.905Z,100944.00
2018-07-12T13:46:09.151Z,100956.00
2018-07-12T13:48:42.055Z,100972.00
2018-07-12T13:51:11.451Z,100990.00
2018-07-12T13:53:41.043Z,100996.00
2018-07-12T13:56:10.631Z,100993.00
2018-07-12T13:58:39.926Z,100993.00
2018-07-12T14:01:09.280Z,101008.00
2018-07-12T14:03:38.583Z,101005.00
2018-07-12T14:06:07.839Z,100999.00
2018-07-12T14:08:37.148Z,100991.00
2018-07-12T14:11:06.555Z,100986.00
2018-07-12T14:13:35.899Z,100979.00
2018-07-12T14:16:05.198Z,100977.00
2018-07-12T14:18:44.235Z,100968.00
2018-07-12T14:21:18.894Z,100961.00
2018-07-12T14:23:48.263Z,100957.00
2018-07-12T14:26:19.607Z,100945.00
2018-07-12T14:28:51.063Z,100955.00
2018-07-12T14:31:20.564Z,100948.00
2018-07-12T14:33:56.505Z,100956.00
2018-07-12T14:36:30.369Z,100955.00
2018-07-12T14:39:01.831Z,100943.00
2018-07-12T14:41:32.514Z,100944.00
2018-07-12T14:44:07.254Z,100951.00
2018-07-12T14:46:40.248Z,100951.00
2018-07-12T14:49:10.238Z,100959.00
2018-07-12T14:51:39.635Z,100955.00
2018-07-12T14:54:10.967Z,100957.00
2018-07-12T14:56:41.012Z,100958.00
2018-07-12T14:59:33.424Z,100955.00
2018-07-12T15:02:02.811Z,100953.00
2018-07-12T15:04:33.072Z,100947.00
2018-07-12T15:07:04.383Z,100950.00
2018-07-12T15:09:38.564Z,100961.00
2018-07-12T15:12:11.960Z,100953.00
2018-07-12T15:14:41.378Z,100941.00
2018-07-12T15:17:10.769Z,100950.00
2018-07-12T15:19:40.155Z,100943.00
2018-07-12T15:22:09.448Z,100946.00
2018-07-12T15:24:38.719Z,100940.00
2018-07-12T15:27:08.075Z,100937.00
2018-07-12T15:29:37.494Z,100936.00
2018-07-12T15:32:06.811Z,100934.00
2018-07-12T15:34:37.153Z,100929.00
2018-07-12T15:37:06.516Z,100935.00
2018-07-12T15:39:35.840Z,100932.00
2018-07-12T15:42:06.303Z,100932.00
2018-07-12T15:44:35.551Z,100933.00
2018-07-12T15:47:07.100Z,100936.00
2018-07-12T15:49:36.491Z,100931.00
2018-07-12T15:52:05.865Z,100939.00
2018-07-12T15:54:35.177Z,100929.00
2018-07-12T15:57:04.484Z,100939.00
2018-07-12T15:59:33.906Z,100940.00
2018-07-12T16:02:03.361Z,100942.00
2018-07-12T16:04:32.630Z,100936.00
2018-07-12T16:07:01.921Z,100943.00
2018-07-12T16:09:31.318Z,100946.00
2018-07-12T16:12:01.257Z,100945.00
2018-07-12T16:14:30.587Z,100938.00
2018-07-12T16:17:00.271Z,100934.00
2018-07-12T16:19:29.597Z,100934.00
2018-07-12T16:21:59.159Z,100933.00
2018-07-12T16:24:28.463Z,100932.00
2018-07-12T16:26:57.826Z,100939.00
2018-07-12T16:29:27.331Z,100945.00
2018-07-12T16:31:57.348Z,100938.00
2018-07-12T16:34:26.674Z,100942.00
2018-07-12T16:36:55.980Z,100939.00
2018-07-12T16:39:25.272Z,100945.00
2018-07-12T16:41:54.640Z,100937.00
2018-07-12T16:44:23.974Z,100940.00
2018-07-12T16:46:53.948Z,100940.00
2018-07-12T16:49:23.256Z,100945.00
2018-07-12T16:51:52.516Z,100940.00
2018-07-12T16:54:21.918Z,100930.00
2018-07-12T16:56:51.340Z,100932.00
2018-07-12T16:59:20.639Z,100932.00
2018-07-12T17:01:49.972Z,100934.00
2018-07-12T17:04:19.412Z,100929.00
2018-07-12T17:06:48.769Z,100930.00
2018-07-12T17:09:18.163Z,100932.00
2018-07-12T17:11:47.517Z,100927.00
2018-07-12T17:14:16.805Z,100933.00
2018-07-12T17:16:46.235Z,100929.00
2018-07-12T17:19:15.507Z,100930.00
2018-07-12T17:21:44.739Z,100934.00
2018-07-12T17:24:13.955Z,100934.00
2018-07-12T17:26:43.555Z,100931.00
2018-07-12T17:29:12.965Z,100929.00
2018-07-12T17:31:46.291Z,100932.00
2018-07-12T17:34:16.173Z,100934.00
2018-07-12T17:36:45.971Z,100933.00
2018-07-12T17:39:15.896Z,100925.00
2018-07-12T17:41:45.230Z,100928.00
2018-07-12T17:44:14.657Z,100927.00
2018-07-12T17:46:45.440Z,100942.00
2018-07-12T17:49:15.624Z,100939.00
2018-07-12T17:51:45.005Z,100935.00
2018-07-12T17:54:14.270Z,100942.00
2018-07-12T17:56:43.554Z,100943.00
2018-07-12T17:59:14.881Z,100944.00
2018-07-12T18:01:44.308Z,100945.00
2018-07-12T18:04:13.631Z,100944.00
2018-07-12T18:06:42.902Z,100945.00
2018-07-12T18:09:12.223Z,100942.00
2018-07-12T18:11:41.695Z,100940.00
2018-07-12T18:14:11.031Z,100949.00
2018-07-12T18:16:41.355Z,100943.00
2018-07-12T18:19:10.705Z,100945.00
2018-07-12T18:21:40.013Z,100947.00
2018-07-12T18:24:09.319Z,100948.00
2018-07-12T18:26:38.680Z,100950.00
2018-07-12T18:29:09.092Z,100950.00
2018-07-12T18:31:39.083Z,100952.00
2018-07-12T18:34:08.472Z,100954.00
2018-07-12T18:36:37.768Z,100949.00
2018-07-12T18:39:08.959Z,100951.00
2018-07-12T18:41:38.660Z,100952.00
2018-07-12T18:44:07.992Z,100958.00
2018-07-12T18:46:37.347Z,100965.00
2018-07-12T18:49:07.049Z,100957.00
2018-07-12T18:51:36.351Z,100961.00
2018-07-12T18:54:05.683Z,100957.00
2018-07-12T18:56:35.015Z,100964.00
2018-07-12T18:59:04.475Z,100968.00
2018-07-12T19:01:33.844Z,100966.00
2018-07-12T19:04:03.183Z,100959.00
2018-07-12T19:06:32.630Z,100970.00
2018-07-12T19:09:02.331Z,100971.00
2018-07-12T19:11:31.651Z,100973.00
2018-07-12T19:14:00.986Z,100971.00
2018-07-12T19:16:30.292Z,100968.00
2018-07-12T19:18:59.598Z,100973.00
2018-07-12T19:21:28.812Z,100973.00
2018-07-12T19:23:58.132Z,100985.00
2018-07-12T19:26:27.503Z,100986.00
2018-07-12T19:28:56.799Z,100985.00
2018-07-12T19:31:26.132Z,100984.00
2018-07-12T19:33:55.386Z,100983.00
2018-07-12T19:36:29.204Z,100993.00
2018-07-12T19:38:58.456Z,100989.00
2018-07-12T19:41:27.863Z,100989.00
2018-07-12T19:43:57.247Z,100999.00
2018-07-12T19:46:26.606Z,100996.00
2018-07-12T19:48:56.172Z,101001.00
2018-07-12T19:51:25.503Z,101009.00
2018-07-12T19:53:55.024Z,101004.00
2018-07-12T19:56:24.378Z,101022.00
2018-07-12T19:58:53.727Z,101031.00
2018-07-12T20:01:23.219Z,101028.00
2018-07-12T20:03:52.610Z,101025.00
2018-07-12T20:06:21.916Z,101032.00
2018-07-12T20:08:51.283Z,101048.00
2018-07-12T20:11:20.563Z,101045.00
2018-07-12T20:13:49.957Z,101047.00
2018-07-12T20:16:19.432Z,101050.00
2018-07-12T20:18:48.853Z,101054.00
2018-07-12T20:21:18.123Z,101065.00
2018-07-12T20:23:47.474Z,101064.00
2018-07-12T20:26:16.763Z,101057.00
2018-07-12T20:28:46.062Z,101062.00
2018-07-12T20:31:15.412Z,101061.00
2018-07-12T20:33:48.198Z,101067.00
2018-07-12T20:36:17.759Z,101070.00
2018-07-12T20:38:47.022Z,101071.00
2018-07-12T20:41:16.323Z,101072.00
2018-07-12T20:43:45.606Z,101080.00
2018-07-12T20:46:14.936Z,101071.00
2018-07-12T20:48:44.336Z,101078.00
2018-07-12T20:51:13.632Z,101079.00
2018-07-12T20:53:42.927Z,101090.00
2018-07-12T20:56:12.235Z,101089.00
2018-07-12T20:58:41.551Z,101090.00
2018-07-12T21:01:14.711Z,101091.00
2018-07-12T21:03:44.049Z,101095.00
2018-07-12T21:06:15.471Z,101106.00
2018-07-12T21:08:44.724Z,101099.00
2018-07-12T21:11:14.075Z,101107.00
2018-07-12T21:13:43.383Z,101099.00
2018-07-12T21:16:15.079Z,101103.00
2018-07-12T21:18:44.339Z,101105.00
2018-07-12T21:21:13.642Z,101101.00
2018-07-12T21:23:44.088Z,101105.00
2018-07-12T21:26:13.384Z,101108.00
2018-07-12T21:28:42.654Z,101100.00
2018-07-12T21:31:12.012Z,101113.00
2018-07-12T21:33:41.441Z,101111.00
2018-07-12T21:36:10.811Z,101117.00
2018-07-12T21:38:40.434Z,101119.00
2018-07-12T21:41:10.160Z,101120.00
2018-07-12T21:43:39.451Z,101130.00
2018-07-12T21:46:09.083Z,101131.00
2018-07-12T21:48:38.421Z,101125.00
2018-07-12T21:51:07.746Z,101123.00
2018-07-12T21:53:37.280Z,101124.00
2018-07-12T21:56:06.601Z,101130.00
2018-07-12T21:58:35.964Z,101124.00
2018-07-12T22:01:09.287Z,101131.00
2018-07-12T22:03:38.698Z,101131.00
2018-07-12T22:06:08.007Z,101130.00
2018-07-12T22:08:44.888Z,101131.00
2018-07-12T22:11:14.163Z,101127.00
2018-07-12T22:13:43.712Z,101132.00
2018-07-12T22:16:14.251Z,101134.00
2018-07-12T22:18:43.640Z,101133.00
2018-07-12T22:21:13.205Z,101149.00
2018-07-12T22:23:46.564Z,101141.00
2018-07-12T22:26:15.929Z,101133.00
2018-07-12T22:28:47.297Z,101139.00
2018-07-12T22:31:16.966Z,101134.00
2018-07-12T22:33:46.385Z,101132.00
2018-07-12T22:36:16.801Z,101138.00
2018-07-12T22:38:46.187Z,101125.00
2018-07-12T22:41:15.459Z,101124.00
2018-07-12T22:43:44.753Z,101122.00
2018-07-12T22:46:14.099Z,101131.00
2018-07-12T22:48:43.559Z,101136.00
2018-07-12T22:51:12.739Z,101131.00
2018-07-12T22:53:42.055Z,101131.00
2018-07-12T22:56:11.371Z,101131.00
2018-07-12T22:58:40.660Z,101129.00
2018-07-12T23:01:09.969Z,101138.00
2018-07-12T23:03:39.228Z,101132.00
2018-07-12T23:06:08.492Z,101135.00
2018-07-12T23:08:37.826Z,101144.00
2018-07-12T23:11:07.216Z,101133.00
2018-07-12T23:13:36.472Z,101139.00
2018-07-12T23:16:05.853Z,101139.00
2018-07-12T23:18:35.157Z,101135.00
2018-07-12T23:21:04.488Z,101130.00
2018-07-12T23:23:33.768Z,101136.00
2018-07-12T23:26:03.107Z,101133.00
2018-07-12T23:28:32.399Z,101135.00
2018-07-12T23:31:01.691Z,101131.00
2018-07-12T23:33:30.960Z,101124.00
2018-07-12T23:36:00.230Z,101124.00
2018-07-12T23:38:29.459Z,101129.00
2018-07-12T23:40:58.710Z,101127.00
2018-07-12T23:43:28.042Z,101126.00
2018-07-12T23:45:57.332Z,101123.00
2018-07-12T23:48:26.627Z,101135.00
2018-07-12T23:50:55.924Z,101134.00
2018-07-12T23:53:25.178Z,101128.00
2018-07-12T23:55:54.646Z,101121.00
2018-07-12T23:58:23.948Z,101124.00
